Time;durP1;ratioP1;P1;durP2;ratioP2;P2;SDS_P1;SDS_P2;PMS_P1;PMS_P2;Temp;Humidity;BMP_temperature;BMP_pressure;BME280_temperature;BME280_humidity;BME280_pressure;Samples;Min_cycle;Max_cycle;Signal;HPM_P1;HPM_P2
2023/10/01 00:00:38;;;;;;;4.33;2.97;;;15.10;99.90;;;;;;5004185;28;21060;-61
2023/10/01 00:03:07;;;;;;;5.87;2.83;;;15.10;99.90;;;;;;4994146;28;20598;-61
2023/10/01 00:05:35;;;;;;;3.80;3.20;;;15.10;99.90;;;;;;4997802;28;20476;-64
2023/10/01 00:08:06;;;;;;;5.60;3.03;;;15.10;99.90;;;;;;4999470;28;21084;-62
2023/10/01 00:10:34;;;;;;;2.93;2.60;;;15.10;99.90;;;;;;5001492;28;20550;-63
2023/10/01 00:13:02;;;;;;;5.20;2.80;;;15.10;99.90;;;;;;5000334;28;20973;-61
2023/10/01 00:15:30;;;;;;;6.50;3.47;;;15.10;99.90;;;;;;5001212;28;20478;-61
2023/10/01 00:17:58;;;;;;;4.87;2.83;;;15.10;99.90;;;;;;5000744;28;20533;-66
2023/10/01 00:20:28;;;;;;;5.23;2.60;;;15.10;99.90;;;;;;5000864;28;20487;-64
2023/10/01 00:23:00;;;;;;;4.50;3.37;;;15.10;99.90;;;;;;4998417;28;20493;-66
2023/10/01 00:25:28;;;;;;;4.33;2.80;;;15.10;99.90;;;;;;4999149;28;21056;-61
2023/10/01 00:27:58;;;;;;;5.47;2.50;;;15.10;99.90;;;;;;5000965;28;20583;-62
2023/10/01 00:30:31;;;;;;;3.90;2.63;;;15.00;99.90;;;;;;4998855;28;21063;-65
2023/10/01 00:33:00;;;;;;;4.30;3.00;;;15.10;99.90;;;;;;4999565;28;20572;-60
2023/10/01 00:35:30;;;;;;;2.53;2.20;;;15.10;99.90;;;;;;5003097;28;20559;-62
2023/10/01 00:37:58;;;;;;;3.87;2.77;;;15.10;99.90;;;;;;4998485;28;20510;-61
2023/10/01 00:40:27;;;;;;;4.00;2.73;;;15.10;99.90;;;;;;4998375;28;20575;-63
2023/10/01 00:42:57;;;;;;;3.87;2.83;;;15.10;99.90;;;;;;4993326;28;20552;-61
2023/10/01 00:45:26;;;;;;;5.83;3.00;;;15.10;99.90;;;;;;4999796;28;20556;-60
2023/10/01 00:47:54;;;;;;;4.77;2.60;;;15.10;99.90;;;;;;4994606;28;20579;-60
2023/10/01 00:50:23;;;;;;;3.77;2.43;;;15.10;99.90;;;;;;5001401;28;20600;-62
2023/10/01 00:52:56;;;;;;;6.33;3.37;;;15.10;99.90;;;;;;4995671;28;20910;-62
2023/10/01 00:55:24;;;;;;;4.87;2.60;;;15.10;99.90;;;;;;4999647;28;20953;-63
2023/10/01 00:57:54;;;;;;;7.70;3.00;;;15.10;99.90;;;;;;5001069;28;20473;-61
2023/10/01 01:00:25;;;;;;;5.10;3.30;;;15.00;99.90;;;;;;5002866;28;20504;-65
2023/10/01 01:03:05;;;;;;;3.50;2.70;;;15.10;99.90;;;;;;4996254;28;20895;-64
2023/10/01 01:05:35;;;;;;;5.97;2.97;;;15.10;99.90;;;;;;5001539;28;21036;-61
2023/10/01 01:08:08;;;;;;;4.07;3.20;;;15.00;99.90;;;;;;4996085;28;20574;-64
2023/10/01 01:10:41;;;;;;;4.10;2.67;;;15.00;99.90;;;;;;4996791;28;23419;-60
2023/10/01 01:13:16;;;;;;;4.07;2.60;;;15.00;99.90;;;;;;5002456;28;20480;-60
2023/10/01 01:15:47;;;;;;;4.50;2.97;;;15.00;99.90;;;;;;4994532;28;20575;-62
2023/10/01 01:18:20;;;;;;;4.10;2.97;;;15.00;99.90;;;;;;4998895;28;20973;-66
2023/10/01 01:20:49;;;;;;;5.80;2.80;;;15.00;99.90;;;;;;5001098;28;20526;-65
2023/10/01 01:23:23;;;;;;;4.17;2.37;;;15.00;99.90;;;;;;4994970;28;20965;-64
2023/10/01 01:25:52;;;;;;;4.83;3.13;;;14.90;99.90;;;;;;5003221;28;20484;-61
2023/10/01 01:28:24;;;;;;;3.43;2.60;;;14.90;99.90;;;;;;5001648;28;20492;-61
2023/10/01 01:30:52;;;;;;;4.97;2.70;;;14.90;99.90;;;;;;5003092;28;20564;-61
2023/10/01 01:33:26;;;;;;;3.27;2.60;;;14.90;99.90;;;;;;5003633;28;20803;-61
2023/10/01 01:35:55;;;;;;;3.87;2.67;;;14.90;99.90;;;;;;4995751;28;20542;-61
2023/10/01 01:38:25;;;;;;;2.83;2.50;;;14.80;99.90;;;;;;4998994;28;20464;-63
2023/10/01 01:40:53;;;;;;;4.40;2.70;;;14.80;99.90;;;;;;4998076;28;20581;-61
2023/10/01 01:43:30;;;;;;;4.30;2.80;;;14.80;99.90;;;;;;5000661;28;20969;-62
2023/10/01 01:46:00;;;;;;;3.97;2.93;;;14.80;99.90;;;;;;5001232;28;20507;-61
2023/10/01 01:48:31;;;;;;;6.27;2.93;;;14.80;99.90;;;;;;5000244;28;20489;-61
2023/10/01 01:51:00;;;;;;;5.93;3.57;;;14.80;99.90;;;;;;4999975;28;20511;-59
2023/10/01 01:53:34;;;;;;;6.27;3.40;;;14.80;99.90;;;;;;5000810;28;20468;-60
2023/10/01 01:56:08;;;;;;;4.60;3.63;;;14.80;99.90;;;;;;4999890;28;20469;-60
2023/10/01 01:58:37;;;;;;;6.40;3.43;;;14.80;99.90;;;;;;4996703;28;20878;-59
2023/10/01 02:01:23;;;;;;;4.90;3.00;;;14.80;99.90;;;;;;5028512;22;20559;-65
2023/10/01 02:03:53;;;;;;;4.87;3.30;;;14.80;99.90;;;;;;5034938;28;20856;-65
2023/10/01 02:06:27;;;;;;;4.80;3.50;;;14.80;99.90;;;;;;5040262;28;20509;-64
2023/10/01 02:08:58;;;;;;;6.63;3.93;;;14.90;99.90;;;;;;5036500;28;20504;-62
2023/10/01 02:11:32;;;;;;;6.67;3.27;;;14.90;99.90;;;;;;5045399;28;20491;-64
2023/10/01 02:14:02;;;;;;;5.40;3.63;;;14.90;99.90;;;;;;5032538;28;20462;-64
2023/10/01 02:16:37;;;;;;;6.20;3.60;;;14.90;99.90;;;;;;5047425;28;20513;-66
2023/10/01 02:19:14;;;;;;;8.60;3.40;;;14.90;99.90;;;;;;5041445;28;20470;-64
2023/10/01 02:21:43;;;;;;;5.70;3.93;;;14.90;99.90;;;;;;5040664;28;20491;-64
2023/10/01 02:24:19;;;;;;;6.70;3.90;;;14.90;99.90;;;;;;5042038;28;20520;-64
2023/10/01 02:26:48;;;;;;;4.67;3.40;;;14.90;99.90;;;;;;5049522;28;20869;-63
2023/10/01 02:29:16;;;;;;;6.80;4.00;;;14.90;99.90;;;;;;5043652;28;20495;-63
2023/10/01 02:31:48;;;;;;;5.80;3.90;;;14.90;99.90;;;;;;5038493;28;20897;-63
2023/10/01 02:34:17;;;;;;;6.20;4.20;;;14.90;99.90;;;;;;5037941;28;20475;-62
2023/10/01 02:36:46;;;;;;;7.47;3.77;;;15.00;99.90;;;;;;5043309;28;20756;-64
2023/10/01 02:39:21;;;;;;;7.00;4.87;;;15.00;99.90;;;;;;5041204;28;20528;-64
2023/10/01 02:42:09;;;;;;;8.13;5.23;;;15.00;99.90;;;;;;5040154;28;20521;-64
2023/10/01 02:44:39;;;;;;;9.13;4.50;;;14.90;99.90;;;;;;5036977;28;20486;-64
2023/10/01 02:47:16;;;;;;;8.30;5.00;;;14.90;99.90;;;;;;5039981;28;20621;-64
2023/10/01 02:49:49;;;;;;;7.53;4.63;;;15.00;99.90;;;;;;5048869;28;20496;-64
2023/10/01 02:52:17;;;;;;;7.70;4.37;;;15.00;99.90;;;;;;5046055;28;20466;-63
2023/10/01 02:54:53;;;;;;;7.30;5.20;;;15.00;99.90;;;;;;5046832;28;21124;-63
2023/10/01 02:57:24;;;;;;;5.80;5.30;;;15.00;99.90;;;;;;5049729;28;20474;-62
2023/10/01 03:00:30;;;;;;;6.00;5.40;;;15.00;99.90;;;;;;5045345;28;20990;-63
2023/10/01 03:02:59;;;;;;;7.97;4.63;;;15.00;99.90;;;;;;5048749;28;20562;-64
2023/10/01 03:05:28;;;;;;;8.93;5.17;;;14.90;99.90;;;;;;5045244;28;20475;-63
2023/10/01 03:08:03;;;;;;;8.23;4.80;;;14.90;99.90;;;;;;5042484;28;20932;-63
2023/10/01 03:10:37;;;;;;;6.77;4.80;;;14.90;99.90;;;;;;5046551;28;20483;-63
2023/10/01 03:13:14;;;;;;;6.37;5.50;;;15.00;99.90;;;;;;5052163;28;20473;-64
2023/10/01 03:16:33;;;;;;;7.20;5.80;;;14.90;99.90;;;;;;5050610;28;20477;-64
2023/10/01 03:18:34;;;;;;;7.93;6.73;;;15.00;99.90;;;;;;5045432;28;20484;-64
2023/10/01 03:21:17;;;;;;;8.83;6.20;;;15.00;99.90;;;;;;5044068;28;20910;-64
2023/10/01 03:23:51;;;;;;;8.80;6.00;;;15.00;99.90;;;;;;5053889;28;20493;-65
2023/10/01 03:26:21;;;;;;;7.30;5.80;;;14.90;99.90;;;;;;5046410;28;20489;-64
2023/10/01 03:31:37;;;;;;;10.10;5.70;;;15.00;99.90;;;;;;5048582;28;20914;-65
2023/10/01 03:34:05;;;;;;;9.00;6.70;;;15.00;99.90;;;;;;5050779;28;20763;-64
2023/10/01 03:36:42;;;;;;;10.33;6.07;;;14.90;99.90;;;;;;5039359;28;20549;-68
2023/10/01 03:39:25;;;;;;;8.53;6.60;;;14.90;99.90;;;;;;5043119;28;20467;-65
2023/10/01 03:42:10;;;;;;;9.20;7.00;;;14.90;99.90;;;;;;5046649;28;20607;-64
2023/10/01 03:47:24;;;;;;;8.20;6.67;;;15.00;99.90;;;;;;5048423;28;20557;-64
2023/10/01 03:49:54;;;;;;;7.77;6.47;;;14.90;99.90;;;;;;5033473;28;20494;-64
2023/10/01 03:52:22;;;;;;;9.73;7.27;;;14.90;99.90;;;;;;5050316;28;20553;-64
2023/10/01 03:54:59;;;;;;;11.33;7.10;;;14.90;99.90;;;;;;5046811;28;20465;-64
2023/10/01 03:57:30;;;;;;;6.67;6.00;;;14.90;99.90;;;;;;5036537;28;20539;-64
2023/10/01 04:00:28;;;;;;;7.73;6.80;;;14.90;99.90;;;;;;5042042;28;20820;-64
2023/10/01 04:02:47;;;;;;;8.90;7.10;;;14.90;99.90;;;;;;5038376;28;20981;-64
2023/10/01 04:05:30;;;;;;;8.20;7.30;;;14.90;99.90;;;;;;5050985;28;20580;-63
2023/10/01 04:08:00;;;;;;;11.93;7.20;;;14.90;99.90;;;;;;5054663;28;20474;-64
2023/10/01 04:10:30;;;;;;;9.47;6.70;;;14.90;99.90;;;;;;5048256;28;20489;-64
2023/10/01 04:13:11;;;;;;;7.13;6.43;;;14.90;99.90;;;;;;5042635;28;23618;-65
2023/10/01 04:15:43;;;;;;;7.03;6.23;;;14.80;99.90;;;;;;5036078;28;20474;-64
2023/10/01 04:18:19;;;;;;;7.97;7.10;;;14.80;99.90;;;;;;5036215;28;20470;-64
2023/10/01 04:20:49;;;;;;;11.13;7.40;;;14.80;99.90;;;;;;5046931;28;20482;-63
2023/10/01 04:23:24;;;;;;;9.27;6.93;;;14.70;99.90;;;;;;5042083;28;20855;-64
2023/10/01 04:25:52;;;;;;;9.90;6.87;;;14.70;99.90;;;;;;5031294;28;20894;-64
2023/10/01 04:28:23;;;;;;;8.80;7.60;;;14.70;99.90;;;;;;5047430;28;20892;-64
2023/10/01 04:30:51;;;;;;;9.33;7.60;;;14.70;99.90;;;;;;5044619;28;20487;-64
2023/10/01 04:33:23;;;;;;;8.90;7.47;;;14.60;99.90;;;;;;5046371;28;20474;-64
2023/10/01 04:35:56;;;;;;;8.70;7.37;;;14.60;99.90;;;;;;5037882;28;20501;-64
2023/10/01 04:38:28;;;;;;;11.70;8.20;;;14.60;99.90;;;;;;5039525;28;20474;-64
2023/10/01 04:40:57;;;;;;;9.47;7.77;;;14.60;99.90;;;;;;5043226;28;20487;-64
2023/10/01 04:43:26;;;;;;;9.10;7.77;;;14.60;99.90;;;;;;5042746;28;20974;-64
2023/10/01 04:45:55;;;;;;;9.43;8.17;;;14.60;99.90;;;;;;5040921;28;20472;-63
2023/10/01 04:48:23;;;;;;;9.33;8.00;;;14.60;99.90;;;;;;5043704;28;20489;-64
2023/10/01 04:50:54;;;;;;;10.27;8.33;;;14.60;99.90;;;;;;5042744;28;20503;-63
2023/10/01 04:53:23;;;;;;;9.53;8.53;;;14.60;99.90;;;;;;5041627;28;20484;-64
2023/10/01 04:56:00;;;;;;;10.97;7.83;;;14.60;99.90;;;;;;5033880;28;20553;-63
2023/10/01 04:58:32;;;;;;;13.73;8.40;;;14.60;99.90;;;;;;5045750;28;20498;-66
2023/10/01 05:01:01;;;;;;;10.20;9.10;;;14.50;99.90;;;;;;5037186;28;20502;-63
2023/10/01 05:03:39;;;;;;;9.40;8.33;;;14.50;99.90;;;;;;5040713;28;20462;-62
2023/10/01 05:06:09;;;;;;;10.73;8.40;;;14.50;99.90;;;;;;5036312;28;20486;-64
2023/10/01 05:08:40;;;;;;;10.40;8.90;;;14.50;99.90;;;;;;5041797;28;20603;-64
2023/10/01 05:11:11;;;;;;;10.70;7.87;;;14.50;99.90;;;;;;5034844;28;20587;-64
2023/10/01 05:13:41;;;;;;;11.07;8.67;;;14.50;99.90;;;;;;5044719;28;20605;-64
2023/10/01 05:16:12;;;;;;;9.97;8.53;;;14.50;99.90;;;;;;5043088;28;20763;-65
2023/10/01 05:18:42;;;;;;;12.47;9.70;;;14.50;99.90;;;;;;5037228;28;20467;-64
2023/10/01 05:21:12;;;;;;;12.50;10.13;;;14.50;99.90;;;;;;5042325;28;20534;-64
2023/10/01 05:23:40;;;;;;;11.00;9.80;;;14.50;99.90;;;;;;5039967;28;20497;-65
2023/10/01 05:26:11;;;;;;;10.10;8.60;;;14.50;99.90;;;;;;5041518;28;20466;-64
2023/10/01 05:28:42;;;;;;;12.33;11.03;;;14.50;99.90;;;;;;5037680;28;20540;-63
2023/10/01 05:31:15;;;;;;;10.80;9.70;;;14.50;99.90;;;;;;5037793;28;20490;-64
2023/10/01 05:33:45;;;;;;;10.90;9.80;;;14.50;99.90;;;;;;5042144;28;20462;-64
2023/10/01 05:36:16;;;;;;;11.80;10.60;;;14.50;99.90;;;;;;5039135;28;20462;-66
2023/10/01 05:38:44;;;;;;;11.13;10.03;;;14.50;99.90;;;;;;5036124;28;20530;-64
2023/10/01 05:41:15;;;;;;;11.90;9.67;;;14.50;99.90;;;;;;5037358;28;20497;-63
2023/10/01 05:43:50;;;;;;;10.73;9.63;;;14.60;99.90;;;;;;5034168;28;20593;-64
2023/10/01 05:46:18;;;;;;;9.90;9.00;;;14.50;99.90;;;;;;5046070;28;20462;-64
2023/10/01 05:48:49;;;;;;;13.80;10.30;;;14.60;99.90;;;;;;5041441;28;20471;-66
2023/10/01 05:51:19;;;;;;;10.93;9.83;;;14.60;99.90;;;;;;5042414;28;21008;-64
2023/10/01 05:53:48;;;;;;;11.73;9.73;;;14.60;99.90;;;;;;5041074;28;20568;-64
2023/10/01 05:56:17;;;;;;;15.43;10.27;;;14.60;99.90;;;;;;5030031;28;20471;-66
2023/10/01 05:58:47;;;;;;;11.03;9.90;;;14.60;99.90;;;;;;5044293;28;20486;-67
2023/10/01 06:01:16;;;;;;;12.53;9.80;;;14.60;99.90;;;;;;5033134;28;20491;-67
2023/10/01 06:03:48;;;;;;;11.30;10.20;;;14.60;99.90;;;;;;5034944;28;20843;-67
2023/10/01 06:06:24;;;;;;;11.90;10.20;;;14.70;99.90;;;;;;5035223;28;20519;-67
2023/10/01 06:08:58;;;;;;;11.30;10.20;;;14.70;99.90;;;;;;5036031;28;20482;-67
2023/10/01 06:11:39;;;;;;;12.03;10.83;;;14.70;99.90;;;;;;5057408;28;20502;-67
2023/10/01 06:14:29;;;;;;;11.80;10.70;;;14.80;99.90;;;;;;5052935;28;20497;-67
2023/10/01 06:17:00;;;;;;;13.70;11.27;;;14.80;99.90;;;;;;5052405;28;21017;-67
2023/10/01 06:19:28;;;;;;;12.90;11.37;;;14.80;99.90;;;;;;5048574;28;20954;-68
2023/10/01 06:22:12;;;;;;;14.97;11.90;;;14.80;99.90;;;;;;5040877;28;21066;-67
2023/10/01 06:24:43;;;;;;;11.30;10.17;;;14.80;99.90;;;;;;5016368;28;20966;-68
2023/10/01 06:27:13;;;;;;;12.73;11.47;;;14.80;99.90;;;;;;5021380;28;20486;-64
2023/10/01 06:29:50;;;;;;;12.57;11.30;;;14.80;99.90;;;;;;5034963;28;20688;-66
2023/10/01 06:32:19;;;;;;;12.43;11.20;;;14.90;99.90;;;;;;5039561;28;21097;-65
2023/10/01 06:34:49;;;;;;;15.63;12.17;;;14.90;99.90;;;;;;5036924;28;20928;-64
2023/10/01 06:37:19;;;;;;;14.10;12.50;;;14.90;99.90;;;;;;5034240;28;20609;-66
2023/10/01 06:39:47;;;;;;;12.27;11.00;;;14.90;99.90;;;;;;5042580;28;20543;-65
2023/10/01 06:42:18;;;;;;;13.40;11.70;;;14.90;99.90;;;;;;5042796;28;20501;-64
2023/10/01 06:44:52;;;;;;;11.33;10.10;;;14.90;99.90;;;;;;5047001;28;20473;-65
2023/10/01 06:47:22;;;;;;;12.23;10.80;;;15.00;99.90;;;;;;5050737;28;20521;-64
2023/10/01 06:50:04;;;;;;;12.17;10.97;;;15.00;99.90;;;;;;5032523;28;21023;-65
2023/10/01 06:52:34;;;;;;;13.73;11.73;;;15.10;99.90;;;;;;5047420;28;21210;-65
2023/10/01 06:55:04;;;;;;;14.57;12.07;;;15.10;99.90;;;;;;5044210;28;20592;-65
2023/10/01 06:57:33;;;;;;;16.10;11.77;;;15.00;99.90;;;;;;5051599;28;20987;-66
2023/10/01 07:00:13;;;;;;;14.80;11.97;;;15.00;99.90;;;;;;5049503;28;21181;-64
2023/10/01 07:02:41;;;;;;;12.60;11.27;;;15.00;99.90;;;;;;5030235;28;20489;-64
2023/10/01 07:05:20;;;;;;;14.90;11.27;;;15.00;99.90;;;;;;5045453;28;20524;-65
2023/10/01 07:07:49;;;;;;;12.97;11.17;;;15.00;99.90;;;;;;5041433;28;21008;-69
2023/10/01 07:10:19;;;;;;;12.13;10.87;;;15.10;99.90;;;;;;5043853;28;20595;-66
2023/10/01 07:12:58;;;;;;;13.50;12.20;;;15.10;99.90;;;;;;5012455;28;20490;-63
2023/10/01 07:15:28;;;;;;;12.97;11.60;;;15.10;99.90;;;;;;5004950;28;20490;-64
2023/10/01 07:17:58;;;;;;;15.93;11.50;;;15.10;99.90;;;;;;5021275;28;20623;-64
2023/10/01 07:20:26;;;;;;;12.90;11.40;;;15.20;99.90;;;;;;4995850;28;20483;-64
2023/10/01 07:22:54;;;;;;;15.70;10.60;;;15.20;99.90;;;;;;5001655;28;20647;-61
2023/10/01 07:25:39;;;;;;;12.43;11.27;;;15.20;99.90;;;;;;5011911;28;21110;-62
2023/10/01 07:28:12;;;;;;;12.13;10.73;;;15.30;99.90;;;;;;5006203;28;20713;-66
2023/10/01 07:30:51;;;;;;;13.00;11.40;;;15.30;99.90;;;;;;5012293;28;20589;-66
2023/10/01 07:33:20;;;;;;;12.30;10.63;;;15.30;99.90;;;;;;5020263;28;20596;-66
2023/10/01 07:35:58;;;;;;;13.00;10.53;;;15.40;99.90;;;;;;5029248;28;20482;-66
2023/10/01 07:38:30;;;;;;;15.13;11.10;;;15.50;99.90;;;;;;5009771;28;20490;-61
2023/10/01 07:40:58;;;;;;;11.03;10.03;;;15.50;99.90;;;;;;5027569;28;20486;-63
2023/10/01 07:43:28;;;;;;;13.13;10.70;;;15.50;99.90;;;;;;5019354;28;20950;-65
2023/10/01 07:45:59;;;;;;;10.80;9.70;;;15.60;99.90;;;;;;5017294;28;21184;-64
2023/10/01 07:48:28;;;;;;;11.43;10.33;;;15.60;99.90;;;;;;5025775;28;20497;-64
2023/10/01 07:50:56;;;;;;;10.83;9.93;;;15.60;99.90;;;;;;5030761;28;22077;-62
2023/10/01 07:53:32;;;;;;;11.97;10.63;;;15.70;99.90;;;;;;5023619;28;20509;-64
2023/10/01 07:56:02;;;;;;;10.93;9.80;;;15.70;99.90;;;;;;5026166;28;20502;-64
2023/10/01 07:58:48;;;;;;;15.03;11.30;;;15.70;99.90;;;;;;5024466;28;21024;-64
2023/10/01 08:01:42;;;;;;;11.70;10.60;;;15.80;99.90;;;;;;5017444;28;20549;-65
2023/10/01 08:04:50;;;;;;;19.30;10.60;;;15.80;99.90;;;;;;5023462;28;20488;-64
2023/10/01 08:07:05;;;;;;;13.20;11.30;;;15.90;99.90;;;;;;5028551;28;20562;-64
2023/10/01 08:09:39;;;;;;;12.10;9.60;;;15.90;99.90;;;;;;5022009;28;20494;-66
2023/10/01 08:12:08;;;;;;;14.47;10.80;;;15.90;99.90;;;;;;5019273;28;20979;-65
2023/10/01 08:14:35;;;;;;;11.63;10.10;;;16.00;99.90;;;;;;5030226;28;20486;-66
2023/10/01 08:17:05;;;;;;;11.20;9.87;;;16.00;99.90;;;;;;5018541;28;20521;-67
2023/10/01 08:19:45;;;;;;;12.07;9.77;;;16.00;99.90;;;;;;5023632;28;20514;-66
2023/10/01 08:22:14;;;;;;;11.97;10.27;;;16.10;99.90;;;;;;5038483;28;20478;-65
2023/10/01 08:24:45;;;;;;;11.53;9.87;;;16.20;99.90;;;;;;5043002;28;20504;-66
2023/10/01 08:27:14;;;;;;;11.50;9.90;;;16.30;99.90;;;;;;5022651;28;20498;-65
2023/10/01 08:32:38;;;;;;;11.50;9.77;;;16.40;99.90;;;;;;5029119;28;20825;-67
2023/10/01 08:35:06;;;;;;;11.90;9.50;;;16.50;99.90;;;;;;5010166;28;20767;-66
2023/10/01 08:37:38;;;;;;;10.80;9.70;;;16.60;99.90;;;;;;5013007;28;20494;-65
2023/10/01 08:40:13;;;;;;;11.93;9.50;;;16.60;99.90;;;;;;5010292;28;20491;-64
2023/10/01 08:42:44;;;;;;;12.80;9.03;;;16.70;99.90;;;;;;5022211;28;20489;-64
2023/10/01 08:45:12;;;;;;;9.63;8.47;;;16.80;99.90;;;;;;5024012;28;20497;-63
2023/10/01 08:47:47;;;;;;;8.60;7.80;;;16.80;99.90;;;;;;5018298;22;20577;-60
2023/10/01 08:50:26;;;;;;;8.73;7.60;;;16.90;99.90;;;;;;5000487;28;20802;-61
2023/10/01 08:52:57;;;;;;;12.33;8.30;;;16.90;99.90;;;;;;5002089;28;20506;-59
2023/10/01 08:55:35;;;;;;;11.80;8.40;;;16.90;99.90;;;;;;5008513;28;20486;-60
2023/10/01 08:58:14;;;;;;;8.33;7.50;;;16.90;99.90;;;;;;4999323;28;20487;-60
2023/10/01 09:00:49;;;;;;;9.90;7.77;;;16.90;99.90;;;;;;5003893;28;20551;-60
2023/10/01 09:03:28;;;;;;;8.00;7.10;;;16.90;99.90;;;;;;5011635;28;20577;-60
2023/10/01 09:06:04;;;;;;;9.17;6.73;;;16.90;99.90;;;;;;5003483;28;20554;-61
2023/10/01 09:08:42;;;;;;;7.67;6.97;;;17.00;99.90;;;;;;5008247;28;20964;-61
2023/10/01 09:11:13;;;;;;;7.33;6.60;;;17.10;99.90;;;;;;4998592;28;20495;-61
2023/10/01 09:13:51;;;;;;;7.73;6.93;;;17.10;99.90;;;;;;5017930;28;20814;-61
2023/10/01 09:16:30;;;;;;;7.50;6.80;;;17.20;99.90;;;;;;5019630;28;20498;-61
2023/10/01 09:19:05;;;;;;;7.10;5.60;;;17.20;99.90;;;;;;5012631;28;20478;-59
2023/10/01 09:21:38;;;;;;;8.67;6.70;;;17.20;99.90;;;;;;5014965;28;20472;-61
2023/10/01 09:24:33;;;;;;;7.73;5.97;;;17.20;99.90;;;;;;5024736;28;20909;-61
2023/10/01 09:27:09;;;;;;;8.13;6.40;;;17.20;99.90;;;;;;5012247;28;20520;-60
2023/10/01 09:29:44;;;;;;;9.03;6.17;;;17.20;99.90;;;;;;5018433;28;20992;-59
2023/10/01 09:32:13;;;;;;;6.17;5.40;;;17.20;99.90;;;;;;5015928;28;20521;-62
2023/10/01 09:34:53;;;;;;;6.07;5.47;;;17.20;99.90;;;;;;5016806;28;20467;-63
2023/10/01 09:37:33;;;;;;;7.10;5.80;;;17.30;99.90;;;;;;5018958;28;20588;-62
2023/10/01 09:40:13;;;;;;;8.80;7.60;;;17.30;99.90;;;;;;5019484;28;20479;-63
2023/10/01 09:42:45;;;;;;;6.93;6.03;;;17.30;99.90;;;;;;5011100;28;20782;-62
2023/10/01 09:48:04;;;;;;;7.30;6.60;;;17.40;99.90;;;;;;5013325;28;20580;-62
2023/10/01 09:50:41;;;;;;;9.60;7.17;;;17.40;99.90;;;;;;5016720;28;20486;-64
2023/10/01 09:53:13;;;;;;;8.47;6.80;;;17.40;99.90;;;;;;5006964;28;20502;-64
2023/10/01 09:55:48;;;;;;;8.30;7.40;;;17.40;99.90;;;;;;5006646;28;20505;-60
2023/10/01 09:58:24;;;;;;;9.00;8.10;;;17.50;99.90;;;;;;5000915;28;21042;-63
2023/10/01 10:00:53;;;;;;;10.07;8.13;;;17.40;99.90;;;;;;5002229;28;20471;-63
2023/10/01 10:03:22;;;;;;;8.83;7.87;;;17.40;99.90;;;;;;5016423;28;20617;-62
2023/10/01 10:05:53;;;;;;;9.03;7.50;;;17.40;99.90;;;;;;5023367;28;20983;-62
2023/10/01 10:08:26;;;;;;;10.27;7.63;;;17.40;99.90;;;;;;5022422;28;20526;-62
2023/10/01 10:10:56;;;;;;;10.37;8.00;;;17.40;99.90;;;;;;5024134;28;20459;-61
2023/10/01 10:13:36;;;;;;;10.27;9.07;;;17.40;99.90;;;;;;5022462;28;20483;-64
2023/10/01 10:16:30;;;;;;;8.20;7.33;;;17.40;99.90;;;;;;5004777;28;20964;-62
2023/10/01 10:19:04;;;;;;;10.07;8.00;;;17.40;99.90;;;;;;5017765;28;20471;-61
2023/10/01 10:22:25;;;;;;;8.40;7.50;;;17.40;99.90;;;;;;5012717;28;20490;-63
2023/10/01 10:25:20;;;;;;;9.40;7.13;;;17.40;99.90;;;;;;5002778;28;20917;-62
2023/10/01 10:27:49;;;;;;;7.20;6.17;;;17.40;99.90;;;;;;5017856;28;20514;-62
2023/10/01 10:30:21;;;;;;;7.27;6.33;;;17.50;99.90;;;;;;5017578;28;20472;-61
2023/10/01 10:33:38;;;;;;;7.77;5.80;;;17.60;99.90;;;;;;5014419;28;21000;-61
2023/10/01 10:36:35;;;;;;;8.50;6.20;;;17.70;99.90;;;;;;5018397;28;20461;-61
2023/10/01 10:39:15;;;;;;;9.27;5.90;;;17.90;99.90;;;;;;5023343;28;20529;-61
2023/10/01 10:42:28;;;;;;;7.57;5.70;;;18.00;99.90;;;;;;5021173;28;20549;-61
2023/10/01 10:45:21;;;;;;;6.00;5.40;;;18.10;99.90;;;;;;5020508;28;20962;-62
2023/10/01 10:47:58;;;;;;;7.73;5.30;;;18.30;99.90;;;;;;5012485;28;20518;-62
2023/10/01 10:50:44;;;;;;;8.13;4.83;;;18.50;99.90;;;;;;5007127;28;20555;-61
2023/10/01 10:53:19;;;;;;;7.90;4.83;;;18.50;99.90;;;;;;5011438;28;20645;-62
2023/10/01 10:56:01;;;;;;;6.73;4.80;;;18.50;99.90;;;;;;5019002;28;21214;-62
2023/10/01 10:58:37;;;;;;;7.30;4.20;;;18.60;99.90;;;;;;5017804;28;20558;-63
2023/10/01 11:03:50;;;;;;;6.00;4.40;;;18.60;99.90;;;;;;5017932;28;20494;-60
2023/10/01 11:06:20;;;;;;;7.37;4.57;;;18.70;99.90;;;;;;5015996;28;20467;-62
2023/10/01 11:08:52;;;;;;;5.70;4.20;;;18.70;99.90;;;;;;5021654;28;20999;-62
2023/10/01 11:11:25;;;;;;;10.20;4.77;;;18.80;99.90;;;;;;5023646;28;20483;-62
2023/10/01 11:14:16;;;;;;;7.37;5.23;;;18.80;99.90;;;;;;5020320;28;20557;-62
2023/10/01 11:16:46;;;;;;;6.07;4.53;;;18.90;99.90;;;;;;5023261;28;20984;-60
2023/10/01 11:19:16;;;;;;;6.93;4.70;;;18.90;99.90;;;;;;5018900;28;20550;-60
2023/10/01 11:21:58;;;;;;;8.37;4.90;;;18.90;99.90;;;;;;5018439;28;20555;-60
2023/10/01 11:24:31;;;;;;;7.57;4.67;;;19.00;99.90;;;;;;5023054;28;20489;-60
2023/10/01 11:27:18;;;;;;;6.70;4.30;;;19.00;99.90;;;;;;5021636;28;20502;-59
2023/10/01 11:29:59;;;;;;;7.47;4.67;;;19.20;99.90;;;;;;5020030;28;20470;-60
2023/10/01 11:36:06;;;;;;;8.23;5.23;;;19.20;99.90;;;;;;5011369;28;20517;-61
2023/10/01 11:38:38;;;;;;;6.87;5.63;;;18.90;99.90;;;;;;5019375;28;20478;-60
2023/10/01 11:41:06;;;;;;;9.77;5.50;;;18.70;99.90;;;;;;5016258;28;21126;-60
2023/10/01 11:43:38;;;;;;;8.80;6.30;;;18.70;99.90;;;;;;5024663;28;20854;-60
2023/10/01 11:46:19;;;;;;;8.23;6.17;;;18.60;99.90;;;;;;5021978;28;20485;-60
2023/10/01 11:48:59;;;;;;;9.23;6.03;;;18.50;99.90;;;;;;5017574;28;20485;-61
2023/10/01 11:51:30;;;;;;;11.17;7.97;;;18.40;99.90;;;;;;5012562;28;20472;-59
2023/10/01 11:54:09;;;;;;;9.23;7.40;;;18.30;99.90;;;;;;5015529;28;20522;-60
2023/10/01 11:56:40;;;;;;;9.27;7.90;;;18.20;99.90;;;;;;5021602;28;20570;-61
2023/10/01 11:59:10;;;;;;;8.97;7.90;;;18.20;99.90;;;;;;5021176;28;20979;-60
2023/10/01 12:01:48;;;;;;;10.07;8.30;;;18.10;99.90;;;;;;5018031;28;20495;-60
2023/10/01 12:04:43;;;;;;;11.53;7.20;;;18.10;99.90;;;;;;5026088;28;20467;-60
2023/10/01 12:07:16;;;;;;;10.30;9.20;;;18.00;99.90;;;;;;5024465;28;20507;-60
2023/10/01 12:09:48;;;;;;;13.60;9.33;;;17.90;99.90;;;;;;5022038;28;20467;-60
2023/10/01 12:12:18;;;;;;;12.97;9.73;;;17.70;99.90;;;;;;5012655;28;21008;-60
2023/10/01 12:14:56;;;;;;;11.23;8.90;;;17.50;99.90;;;;;;5002502;28;20901;-59
2023/10/01 12:17:26;;;;;;;13.50;9.47;;;17.30;99.90;;;;;;5002163;28;20666;-58
2023/10/01 12:19:57;;;;;;;14.07;9.80;;;17.10;99.90;;;;;;5002213;28;20966;-60
2023/10/01 12:22:25;;;;;;;13.57;9.73;;;17.10;99.90;;;;;;5003901;28;20480;-60
2023/10/01 12:24:59;;;;;;;11.30;10.10;;;17.00;99.90;;;;;;5014824;28;20867;-60
2023/10/01 12:27:37;;;;;;;17.30;11.03;;;17.00;99.90;;;;;;5007202;28;21894;-59
2023/10/01 12:30:10;;;;;;;12.80;9.57;;;16.90;99.90;;;;;;5009714;28;20475;-60
2023/10/01 12:32:48;;;;;;;12.67;10.40;;;16.90;99.90;;;;;;5004063;28;21034;-60
2023/10/01 12:35:28;;;;;;;13.10;10.50;;;16.90;99.90;;;;;;5009232;28;20486;-58
2023/10/01 12:38:22;;;;;;;12.70;9.97;;;16.90;99.90;;;;;;5003711;28;20858;-58
2023/10/01 12:40:53;;;;;;;13.40;9.17;;;16.80;99.90;;;;;;5010809;28;20507;-60
2023/10/01 12:43:39;;;;;;;9.50;8.60;;;16.80;99.90;;;;;;5002620;28;20468;-61
2023/10/01 12:46:12;;;;;;;10.17;9.17;;;16.70;99.90;;;;;;5005455;28;20475;-64
2023/10/01 12:51:33;;;;;;;9.20;8.23;;;16.70;99.90;;;;;;4998393;28;20550;-63
2023/10/01 12:54:01;;;;;;;9.47;8.47;;;16.80;99.90;;;;;;4993272;28;21487;-62
2023/10/01 12:56:44;;;;;;;8.83;7.93;;;16.80;99.90;;;;;;5001110;28;21036;-64
2023/10/01 12:59:18;;;;;;;9.27;8.30;;;16.70;99.90;;;;;;5015182;28;20487;-61
2023/10/01 13:01:56;;;;;;;8.87;7.90;;;16.70;99.90;;;;;;5002413;28;20463;-61
2023/10/01 13:04:25;;;;;;;10.60;8.63;;;16.70;99.90;;;;;;5007961;28;20828;-63
2023/10/01 13:07:01;;;;;;;9.17;8.37;;;16.60;99.90;;;;;;5014347;28;20673;-64
2023/10/01 13:09:37;;;;;;;10.20;9.20;;;16.60;99.90;;;;;;4993243;28;20484;-65
2023/10/01 13:12:13;;;;;;;10.13;9.23;;;16.50;99.90;;;;;;5009608;28;20475;-64
2023/10/01 13:14:41;;;;;;;10.47;9.37;;;16.60;99.90;;;;;;5008517;28;21050;-68
2023/10/01 13:17:20;;;;;;;11.50;10.40;;;16.60;99.90;;;;;;4990143;28;20499;-64
2023/10/01 13:20:00;;;;;;;10.93;9.83;;;16.50;99.90;;;;;;5011675;28;20471;-63
2023/10/01 13:22:28;;;;;;;12.70;11.50;;;16.50;99.90;;;;;;5011229;28;20521;-62
2023/10/01 13:24:56;;;;;;;11.57;10.40;;;16.50;99.90;;;;;;4999403;28;20990;-63
2023/10/01 13:27:24;;;;;;;11.97;10.73;;;16.40;99.90;;;;;;5007516;28;20590;-64
2023/10/01 13:30:18;;;;;;;12.90;11.47;;;16.40;99.90;;;;;;5012409;28;20610;-63
2023/10/01 13:32:57;;;;;;;12.20;10.93;;;16.40;99.90;;;;;;5004843;28;20565;-63
2023/10/01 13:35:35;;;;;;;13.57;11.47;;;16.30;99.90;;;;;;4992255;28;24774;-63